createdAt,value
2018-07-30T00:00:07.543Z,19.50
2018-07-30T00:03:06.007Z,19.54
2018-07-30T00:06:04.044Z,19.49
2018-07-30T00:09:02.157Z,19.35
2018-07-30T00:12:01.323Z,19.25
2018-07-30T00:14:59.871Z,19.20
2018-07-30T00:17:59.516Z,19.24
2018-07-30T00:20:58.211Z,19.32
2018-07-30T00:23:56.557Z,19.28
2018-07-30T00:26:55.972Z,19.29
2018-07-30T00:29:54.177Z,19.14
2018-07-30T00:32:52.337Z,19.11
2018-07-30T00:35:50.531Z,19.03
2018-07-30T00:38:48.495Z,18.96
2018-07-30T00:41:47.882Z,18.91
2018-07-30T00:44:45.953Z,18.94
2018-07-30T00:47:44.304Z,19.02
2018-07-30T00:50:42.629Z,18.98
2018-07-30T00:53:40.940Z,18.91
2018-07-30T00:56:39.312Z,18.91
2018-07-30T00:59:37.368Z,18.86
2018-07-30T01:02:35.638Z,18.78
2018-07-30T01:05:33.884Z,18.73
2018-07-30T01:08:32.472Z,18.58
2018-07-30T01:11:30.750Z,18.61
2018-07-30T01:14:29.124Z,18.63
2018-07-30T01:17:27.448Z,18.61
2018-07-30T01:20:26.388Z,18.62
2018-07-30T01:23:24.716Z,18.63
2018-07-30T01:26:42.030Z,18.62
2018-07-30T01:29:39.736Z,18.61
2018-07-30T01:32:38.043Z,18.61
2018-07-30T01:35:37.454Z,18.62
2018-07-30T01:38:35.708Z,18.60
2018-07-30T01:41:34.557Z,18.62
2018-07-30T01:44:33.040Z,18.63
2018-07-30T01:47:32.514Z,18.52
2018-07-30T01:50:33.186Z,18.41
2018-07-30T01:53:31.568Z,18.40
2018-07-30T01:56:30.193Z,18.39
2018-07-30T01:59:28.494Z,18.34
2018-07-30T02:02:27.034Z,18.31
2018-07-30T02:05:25.814Z,18.19
2018-07-30T02:08:24.093Z,18.07
2018-07-30T02:11:22.231Z,18.03
2018-07-30T02:14:20.707Z,18.10
2018-07-30T02:17:18.704Z,18.12
2018-07-30T02:20:17.113Z,18.17
2018-07-30T02:23:16.427Z,18.12
2018-07-30T02:26:14.794Z,17.99
2018-07-30T02:29:13.030Z,17.85
2018-07-30T02:32:11.132Z,17.83
2018-07-30T02:35:09.326Z,17.90
2018-07-30T02:38:07.484Z,17.88
2018-07-30T02:41:05.819Z,17.87
2018-07-30T02:44:04.903Z,17.89
2018-07-30T02:47:03.881Z,17.84
2018-07-30T02:50:03.291Z,17.77
2018-07-30T02:53:01.553Z,17.78
2018-07-30T02:55:59.768Z,17.76
2018-07-30T02:58:58.154Z,17.74
2018-07-30T03:01:55.877Z,17.72
2018-07-30T03:04:54.167Z,17.68
2018-07-30T03:07:52.516Z,17.60
2018-07-30T03:10:50.697Z,17.61
2018-07-30T03:13:52.386Z,17.66
2018-07-30T03:16:50.582Z,17.60
2018-07-30T03:19:49.464Z,17.50
2018-07-30T03:22:47.314Z,17.54
2018-07-30T03:25:45.426Z,17.63
2018-07-30T03:28:43.731Z,17.55
2018-07-30T03:31:41.953Z,17.54
2018-07-30T03:34:40.100Z,17.52
2018-07-30T03:37:38.191Z,17.50
2018-07-30T03:40:37.457Z,17.44
2018-07-30T03:43:35.840Z,17.47
2018-07-30T03:46:34.111Z,17.50
2018-07-30T03:49:32.477Z,17.54
2018-07-30T03:52:30.869Z,17.62
2018-07-30T03:55:30.028Z,17.65
2018-07-30T03:58:29.413Z,17.76
2018-07-30T04:01:27.578Z,17.79
2018-07-30T04:04:26.863Z,17.82
2018-07-30T04:07:25.091Z,17.92
2018-07-30T04:10:23.561Z,17.98
2018-07-30T04:13:21.864Z,18.04
2018-07-30T04:16:20.312Z,18.13
2018-07-30T04:19:18.661Z,18.28
2018-07-30T04:22:17.123Z,18.39
2018-07-30T04:25:15.359Z,18.53
2018-07-30T04:28:13.780Z,18.64
2018-07-30T04:31:12.764Z,18.75
2018-07-30T04:34:12.067Z,18.88
2018-07-30T04:37:10.458Z,18.97
2018-07-30T04:40:08.796Z,19.10
2018-07-30T04:43:06.986Z,19.22
2018-07-30T04:46:05.247Z,19.35
2018-07-30T04:49:03.473Z,19.46
2018-07-30T04:52:01.741Z,19.56
2018-07-30T04:55:01.061Z,19.68
2018-07-30T04:57:59.381Z,19.82
2018-07-30T05:00:58.000Z,19.95
2018-07-30T05:03:56.252Z,20.10
2018-07-30T05:06:54.440Z,20.25
2018-07-30T05:10:02.285Z,20.46
2018-07-30T05:13:01.663Z,20.68
2018-07-30T05:16:00.996Z,20.85
2018-07-30T05:18:58.856Z,21.05
2018-07-30T05:21:58.817Z,21.22
2018-07-30T05:24:58.480Z,21.40
2018-07-30T05:27:57.009Z,21.61
2018-07-30T05:30:55.570Z,21.74
2018-07-30T05:33:53.497Z,21.89
2018-07-30T05:36:52.031Z,22.07
2018-07-30T05:39:50.067Z,22.29
2018-07-30T05:42:48.306Z,22.52
2018-07-30T05:45:46.578Z,22.72
2018-07-30T05:48:45.742Z,22.86
2018-07-30T05:51:43.938Z,23.03
2018-07-30T05:54:42.221Z,23.19
2018-07-30T05:57:40.463Z,23.38
2018-07-30T06:00:38.771Z,23.48
2018-07-30T06:03:37.226Z,23.65
2018-07-30T06:06:35.404Z,23.81
2018-07-30T06:09:33.914Z,23.92
2018-07-30T06:12:32.251Z,24.09
2018-07-30T06:15:30.734Z,24.19
2018-07-30T06:18:29.094Z,24.34
2018-07-30T06:21:27.320Z,24.49
2018-07-30T06:24:26.781Z,24.65
2018-07-30T06:27:26.439Z,24.79
2018-07-30T06:30:25.089Z,24.89
2018-07-30T06:33:23.236Z,25.02
2018-07-30T06:36:21.841Z,25.12
2018-07-30T06:39:21.916Z,25.23
2018-07-30T06:42:20.325Z,25.30
2018-07-30T06:45:20.013Z,25.37
2018-07-30T06:48:17.789Z,25.45
2018-07-30T06:51:17.020Z,25.51
2018-07-30T06:54:15.225Z,25.59
2018-07-30T06:57:14.477Z,25.63
2018-07-30T07:00:14.208Z,25.71
2018-07-30T07:03:12.156Z,25.77
2018-07-30T07:06:10.823Z,25.88
2018-07-30T07:09:08.772Z,25.96
2018-07-30T07:12:07.565Z,26.10
2018-07-30T07:15:05.732Z,26.24
2018-07-30T07:18:04.037Z,26.29
2018-07-30T07:21:02.709Z,26.31
2018-07-30T07:24:00.892Z,26.38
2018-07-30T07:27:00.100Z,26.53
2018-07-30T07:29:58.585Z,26.65
2018-07-30T07:32:58.817Z,26.81
2018-07-30T07:35:57.134Z,26.96
2018-07-30T07:38:57.144Z,27.11
2018-07-30T07:41:56.602Z,27.27
2018-07-30T07:44:54.633Z,27.42
2018-07-30T07:47:54.109Z,27.48
2018-07-30T07:50:53.854Z,27.60
2018-07-30T07:53:52.089Z,27.69
2018-07-30T07:56:52.397Z,27.70
2018-07-30T07:59:50.800Z,27.78
2018-07-30T08:02:48.892Z,27.87
2018-07-30T08:05:46.972Z,27.91
2018-07-30T08:08:45.070Z,27.91
2018-07-30T08:11:43.409Z,27.88
2018-07-30T08:14:41.530Z,27.93
2018-07-30T08:17:40.574Z,27.87
2018-07-30T08:20:38.987Z,27.85
2018-07-30T08:23:38.001Z,27.91
2018-07-30T08:26:37.188Z,27.93
2018-07-30T08:29:35.149Z,27.94
2018-07-30T08:32:33.582Z,28.02
2018-07-30T08:35:31.889Z,28.13
2018-07-30T08:38:30.262Z,28.39
2018-07-30T08:41:28.441Z,28.47
2018-07-30T08:44:26.542Z,28.63
2018-07-30T08:47:25.160Z,28.69
2018-07-30T08:50:23.354Z,28.76
2018-07-30T08:53:22.334Z,28.79
2018-07-30T08:56:20.665Z,28.79
2018-07-30T08:59:18.853Z,28.78
2018-07-30T09:02:17.062Z,28.87
2018-07-30T09:05:16.502Z,29.15
2018-07-30T09:08:15.646Z,29.29
2018-07-30T09:11:15.140Z,29.48
2018-07-30T09:14:13.209Z,29.75
2018-07-30T09:17:11.273Z,29.99
2018-07-30T09:20:10.262Z,30.14
2018-07-30T09:23:08.327Z,30.09
2018-07-30T09:26:06.592Z,30.06
2018-07-30T09:29:04.271Z,30.22
2018-07-30T09:32:03.632Z,30.10
2018-07-30T09:35:01.826Z,30.01
2018-07-30T09:38:00.967Z,30.10
2018-07-30T09:40:59.388Z,30.31
2018-07-30T09:43:57.597Z,30.41
2018-07-30T09:46:55.651Z,30.36
2018-07-30T09:49:55.149Z,30.16
2018-07-30T09:52:54.383Z,29.95
2018-07-30T09:55:52.487Z,29.91
2018-07-30T09:58:50.764Z,29.94
2018-07-30T10:01:48.916Z,30.13
2018-07-30T10:04:51.025Z,30.22
2018-07-30T10:07:49.459Z,30.19
2018-07-30T10:10:47.517Z,30.27
2018-07-30T10:13:45.868Z,30.37
2018-07-30T10:16:44.242Z,30.40
2018-07-30T10:19:42.524Z,30.56
2018-07-30T10:22:40.393Z,30.55
2018-07-30T10:25:38.625Z,30.66
2018-07-30T10:28:39.265Z,30.80
2018-07-30T10:31:37.305Z,30.97
2018-07-30T10:34:36.663Z,30.98
2018-07-30T10:37:34.734Z,31.23
2018-07-30T10:40:32.624Z,31.46
2018-07-30T10:43:31.127Z,31.60
2018-07-30T10:46:29.263Z,31.60
2018-07-30T10:49:27.263Z,31.59
2018-07-30T10:52:26.284Z,31.33
2018-07-30T10:55:24.362Z,30.87
2018-07-30T10:58:22.467Z,30.49
2018-07-30T11:01:21.222Z,30.56
2018-07-30T11:04:19.353Z,30.91
2018-07-30T11:07:18.602Z,31.31
2018-07-30T11:10:16.669Z,31.53
2018-07-30T11:13:15.202Z,31.86
2018-07-30T11:16:13.353Z,32.32
2018-07-30T11:19:12.917Z,32.88
2018-07-30T11:22:11.403Z,33.39
2018-07-30T11:25:09.728Z,33.77
2018-07-30T11:28:08.062Z,34.23
2018-07-30T11:31:06.192Z,34.66
2018-07-30T11:34:04.751Z,34.98
2018-07-30T11:37:03.838Z,35.05
2018-07-30T11:40:01.959Z,35.80
2018-07-30T11:43:00.088Z,36.60
2018-07-30T11:46:04.180Z,37.21
2018-07-30T11:49:02.136Z,37.53
2018-07-30T11:52:00.724Z,37.80
2018-07-30T11:55:00.070Z,37.13
2018-07-30T11:57:58.364Z,36.59
2018-07-30T12:00:56.567Z,35.59
2018-07-30T12:03:54.764Z,34.91
2018-07-30T12:06:53.038Z,34.17
2018-07-30T12:09:51.145Z,34.08
2018-07-30T12:12:50.073Z,35.08
2018-07-30T12:15:48.290Z,36.24
2018-07-30T12:18:46.500Z,36.99
2018-07-30T12:21:44.659Z,37.46
2018-07-30T12:24:42.858Z,38.01
2018-07-30T12:27:40.898Z,37.59
2018-07-30T12:30:40.599Z,37.22
2018-07-30T12:33:38.722Z,36.17
2018-07-30T12:36:37.036Z,36.24
2018-07-30T12:39:36.351Z,35.92
2018-07-30T12:42:34.565Z,35.88
2018-07-30T12:45:39.874Z,36.34
2018-07-30T12:48:37.964Z,36.64
2018-07-30T12:51:36.264Z,36.98
2018-07-30T12:54:35.000Z,37.90
2018-07-30T12:57:33.336Z,38.43
2018-07-30T13:00:32.135Z,38.55
2018-07-30T13:03:31.220Z,38.99
2018-07-30T13:06:29.377Z,39.02
2018-07-30T13:09:29.704Z,39.15
2018-07-30T13:12:27.949Z,38.79
2018-07-30T13:15:25.965Z,38.15
2018-07-30T13:18:24.988Z,37.67
2018-07-30T13:21:24.492Z,37.62
2018-07-30T13:24:22.788Z,37.46
2018-07-30T13:27:20.933Z,37.55
2018-07-30T13:30:20.109Z,37.75
2018-07-30T13:33:18.409Z,37.88
2018-07-30T13:36:16.545Z,37.86
2018-07-30T13:39:14.777Z,37.72
2018-07-30T13:42:12.848Z,37.53
2018-07-30T13:45:10.929Z,37.37
2018-07-30T13:48:09.085Z,37.52
2018-07-30T13:51:07.366Z,37.70
2018-07-30T13:54:05.652Z,38.10
2018-07-30T13:57:04.796Z,38.28
2018-07-30T14:00:03.136Z,38.24
2018-07-30T14:03:02.164Z,38.47
2018-07-30T14:06:00.636Z,38.30
2018-07-30T14:08:58.804Z,38.25
2018-07-30T14:11:56.820Z,38.06
2018-07-30T14:14:55.835Z,37.66
2018-07-30T14:17:53.682Z,37.39
2018-07-30T14:20:52.271Z,37.43
2018-07-30T14:23:50.609Z,37.55
2018-07-30T14:26:48.765Z,37.86
2018-07-30T14:29:46.956Z,37.36
2018-07-30T14:32:46.299Z,37.61
2018-07-30T14:35:44.706Z,37.64
2018-07-30T14:38:43.388Z,36.85
2018-07-30T14:41:41.628Z,37.00
2018-07-30T14:44:48.108Z,37.40
2018-07-30T14:47:46.764Z,37.18
2018-07-30T14:50:44.958Z,37.75
2018-07-30T14:53:43.509Z,37.81
2018-07-30T14:56:41.363Z,37.47
2018-07-30T14:59:39.470Z,37.51
2018-07-30T15:02:37.871Z,37.92
2018-07-30T15:05:36.888Z,38.52
2018-07-30T15:08:35.061Z,38.32
2018-07-30T15:11:33.534Z,38.45
2018-07-30T15:14:31.879Z,38.11
2018-07-30T15:17:32.459Z,37.80
2018-07-30T15:20:30.644Z,38.17
2018-07-30T15:23:29.673Z,38.56
2018-07-30T15:26:27.900Z,38.61
2018-07-30T15:29:27.474Z,38.58
2018-07-30T15:32:25.553Z,38.64
2018-07-30T15:35:23.620Z,39.14
2018-07-30T15:38:22.817Z,39.29
2018-07-30T15:41:21.069Z,39.32
2018-07-30T15:44:19.333Z,39.86
2018-07-30T15:47:21.481Z,39.85
2018-07-30T15:50:21.584Z,39.16
2018-07-30T15:53:20.376Z,39.26
2018-07-30T15:56:18.702Z,39.59
2018-07-30T15:59:17.089Z,39.82
2018-07-30T16:02:15.996Z,39.39
2018-07-30T16:05:14.021Z,39.29
2018-07-30T16:08:12.026Z,39.13
2018-07-30T16:11:11.066Z,39.50
2018-07-30T16:14:09.140Z,39.07
2018-07-30T16:17:07.316Z,38.77
2018-07-30T16:20:05.857Z,38.97
2018-07-30T16:23:03.999Z,38.88
2018-07-30T16:26:01.776Z,39.22
2018-07-30T16:29:00.356Z,39.99
2018-07-30T16:31:58.864Z,39.99
2018-07-30T16:34:57.287Z,39.78
2018-07-30T16:37:55.873Z,39.12
2018-07-30T16:40:54.127Z,38.88
2018-07-30T16:43:52.416Z,39.23
2018-07-30T16:46:50.678Z,39.22
2018-07-30T16:49:48.738Z,38.81
2018-07-30T16:55:49.878Z,38.35
2018-07-30T16:58:47.828Z,37.51
2018-07-30T17:01:45.931Z,36.89
2018-07-30T17:04:43.936Z,36.62
2018-07-30T17:07:41.908Z,36.35
2018-07-30T17:10:39.849Z,36.08
2018-07-30T17:13:39.195Z,35.84
2018-07-30T17:16:37.603Z,35.83
2018-07-30T17:19:35.564Z,35.58
2018-07-30T17:22:33.616Z,35.03
2018-07-30T17:25:31.892Z,34.69
2018-07-30T17:28:30.438Z,34.47
2018-07-30T17:31:28.942Z,34.40
2018-07-30T17:34:27.533Z,34.32
2018-07-30T17:37:25.762Z,34.08
2018-07-30T17:40:24.218Z,33.78
2018-07-30T17:43:22.420Z,33.44
2018-07-30T17:46:21.461Z,33.21
2018-07-30T17:49:19.931Z,33.10
2018-07-30T17:52:18.012Z,32.97
2018-07-30T17:55:17.387Z,32.85
2018-07-30T17:58:15.429Z,32.69
2018-07-30T18:01:13.920Z,32.42
2018-07-30T18:04:11.676Z,32.07
2018-07-30T18:07:10.253Z,31.63
2018-07-30T18:10:08.518Z,31.19
2018-07-30T18:13:06.797Z,30.79
2018-07-30T18:16:05.239Z,30.43
2018-07-30T18:19:03.404Z,30.11
2018-07-30T18:22:02.447Z,29.81
2018-07-30T18:25:01.805Z,29.47
2018-07-30T18:28:00.350Z,29.16
2018-07-30T18:30:59.065Z,28.90
2018-07-30T18:33:58.487Z,28.67
2018-07-30T18:36:57.818Z,28.49
2018-07-30T18:39:55.868Z,28.30
2018-07-30T18:42:54.199Z,28.09
2018-07-30T18:45:52.272Z,27.88
2018-07-30T18:48:50.476Z,27.71
2018-07-30T18:51:49.040Z,27.52
2018-07-30T18:54:48.691Z,27.35
2018-07-30T18:57:46.789Z,27.29
2018-07-30T19:00:45.050Z,27.23
2018-07-30T19:03:43.483Z,27.19
2018-07-30T19:06:41.756Z,27.09
2018-07-30T19:09:39.784Z,26.96
2018-07-30T19:12:38.912Z,26.83
2018-07-30T19:15:38.080Z,26.69
2018-07-30T19:18:36.616Z,26.50
2018-07-30T19:21:35.956Z,26.29
2018-07-30T19:24:34.376Z,26.14
2018-07-30T19:27:33.918Z,25.98
2018-07-30T19:30:32.313Z,25.84
2018-07-30T19:33:31.367Z,25.69
2018-07-30T19:36:31.473Z,25.57
2018-07-30T19:39:31.421Z,25.47
2018-07-30T19:42:29.530Z,25.31
2018-07-30T19:45:28.014Z,25.14
2018-07-30T19:48:27.090Z,25.02
2018-07-30T19:51:27.194Z,24.95
2018-07-30T19:54:25.381Z,24.90
2018-07-30T19:57:23.948Z,24.76
2018-07-30T20:00:23.014Z,24.60
2018-07-30T20:03:21.636Z,24.38
2018-07-30T20:06:20.155Z,24.32
2018-07-30T20:09:20.057Z,24.39
2018-07-30T20:12:18.860Z,24.41
2018-07-30T20:15:18.520Z,24.38
2018-07-30T20:18:17.160Z,24.35
2018-07-30T20:21:15.492Z,24.32
2018-07-30T20:24:14.437Z,24.31
2018-07-30T20:27:12.284Z,24.15
2018-07-30T20:30:10.476Z,24.04
2018-07-30T20:33:09.756Z,23.91
2018-07-30T20:36:07.939Z,23.93
2018-07-30T20:39:07.214Z,23.94
2018-07-30T20:42:05.393Z,23.94
2018-07-30T20:45:04.864Z,23.80
2018-07-30T20:48:03.249Z,23.61
2018-07-30T20:51:01.907Z,23.54
2018-07-30T20:54:00.014Z,23.44
2018-07-30T20:56:59.440Z,23.38
2018-07-30T20:59:57.442Z,23.33
2018-07-30T21:02:57.300Z,23.28
2018-07-30T21:05:55.723Z,23.28
2018-07-30T21:08:53.757Z,23.30
2018-07-30T21:11:52.393Z,23.25
2018-07-30T21:14:50.882Z,23.14
2018-07-30T21:17:49.236Z,23.07
2018-07-30T21:20:47.012Z,22.97
2018-07-30T21:23:45.554Z,22.99
2018-07-30T21:26:43.737Z,22.93
2018-07-30T21:29:41.702Z,22.83
2018-07-30T21:32:39.857Z,22.76
2018-07-30T21:35:38.015Z,22.63
2018-07-30T21:38:36.285Z,22.53
2018-07-30T21:41:34.531Z,22.54
2018-07-30T21:44:32.358Z,22.60
2018-07-30T21:47:30.762Z,22.51
2018-07-30T21:50:28.595Z,22.48
2018-07-30T21:53:27.384Z,22.45
2018-07-30T21:56:25.679Z,22.44
2018-07-30T21:59:24.070Z,22.41
2018-07-30T22:02:22.412Z,22.28
2018-07-30T22:05:24.607Z,22.17
2018-07-30T22:08:23.438Z,22.11
2018-07-30T22:11:22.128Z,22.09
2018-07-30T22:14:20.390Z,22.04
2018-07-30T22:17:18.380Z,22.09
2018-07-30T22:20:17.000Z,22.01
2018-07-30T22:23:15.196Z,22.05
2018-07-30T22:26:18.558Z,22.09
2018-07-30T22:29:16.433Z,22.10
2018-07-30T22:32:14.668Z,22.10
2018-07-30T22:35:14.399Z,22.15
2018-07-30T22:38:12.801Z,22.14
2018-07-30T22:41:11.013Z,22.10
2018-07-30T22:44:09.263Z,21.98
2018-07-30T22:47:07.709Z,21.81
2018-07-30T22:50:05.788Z,21.70
2018-07-30T22:53:04.376Z,21.65
2018-07-30T22:56:02.692Z,21.62
2018-07-30T22:59:01.123Z,21.56
2018-07-30T23:01:59.985Z,21.43
2018-07-30T23:04:58.107Z,21.33
2018-07-30T23:07:56.000Z,21.24
2018-07-30T23:10:55.100Z,21.24
2018-07-30T23:13:54.479Z,21.28
2018-07-30T23:16:52.889Z,21.21
2018-07-30T23:19:51.106Z,21.15
2018-07-30T23:22:49.695Z,21.11
2018-07-30T23:25:48.540Z,21.05
2018-07-30T23:28:46.545Z,20.98
2018-07-30T23:31:44.267Z,20.90
2018-07-30T23:34:43.001Z,20.88
2018-07-30T23:37:41.304Z,20.80
2018-07-30T23:40:39.876Z,20.79
2018-07-30T23:43:38.661Z,20.75
2018-07-30T23:46:37.042Z,20.70
2018-07-30T23:49:35.783Z,20.69
2018-07-30T23:52:34.189Z,20.74
2018-07-30T23:55:33.589Z,20.92
2018-07-30T23:58:31.552Z,20.89
